sensor_id;sensor_type;location;lat;lon;timestamp;P1;durP1;ratioP1;P2;durP2;ratioP2
22949;SDS011;11641;51.018;4.474;2023-03-11T00:02:09;14.13;;;3.35;;
22949;SDS011;11641;51.018;4.474;2023-03-11T00:04:37;8.52;;;3.13;;
22949;SDS011;11641;51.018;4.474;2023-03-11T00:07:07;13.63;;;3.25;;
22949;SDS011;11641;51.018;4.474;2023-03-11T00:09:33;11.50;;;3.08;;
22949;SDS011;11641;51.018;4.474;2023-03-11T00:12:00;15.50;;;3.45;;
22949;SDS011;11641;51.018;4.474;2023-03-11T00:14:26;10.85;;;3.17;;
22949;SDS011;11641;51.018;4.474;2023-03-11T00:16:52;12.48;;;3.28;;
22949;SDS011;11641;51.018;4.474;2023-03-11T00:19:18;19.55;;;4.60;;
22949;SDS011;11641;51.018;4.474;2023-03-11T00:21:43;18.75;;;4.63;;
22949;SDS011;11641;51.018;4.474;2023-03-11T00:24:09;20.67;;;4.55;;
22949;SDS011;11641;51.018;4.474;2023-03-11T00:26:35;11.05;;;3.70;;
22949;SDS011;11641;51.018;4.474;2023-03-11T00:29:00;12.85;;;3.28;;
22949;SDS011;11641;51.018;4.474;2023-03-11T00:31:26;11.63;;;3.83;;
22949;SDS011;11641;51.018;4.474;2023-03-11T00:33:52;14.13;;;3.28;;
22949;SDS011;11641;51.018;4.474;2023-03-11T00:36:20;9.95;;;2.80;;
22949;SDS011;11641;51.018;4.474;2023-03-11T00:38:48;13.35;;;3.55;;
22949;SDS011;11641;51.018;4.474;2023-03-11T00:41:14;10.27;;;3.13;;
22949;SDS011;11641;51.018;4.474;2023-03-11T00:43:41;11.50;;;3.08;;
22949;SDS011;11641;51.018;4.474;2023-03-11T00:46:10;11.75;;;2.90;;
22949;SDS011;11641;51.018;4.474;2023-03-11T00:48:35;12.43;;;3.28;;
22949;SDS011;11641;51.018;4.474;2023-03-11T00:51:01;19.20;;;3.72;;
22949;SDS011;11641;51.018;4.474;2023-03-11T00:53:29;10.45;;;2.80;;
22949;SDS011;11641;51.018;4.474;2023-03-11T00:55:57;12.30;;;3.30;;
22949;SDS011;11641;51.018;4.474;2023-03-11T00:58:25;12.35;;;2.92;;
22949;SDS011;11641;51.018;4.474;2023-03-11T01:00:54;12.15;;;3.38;;
22949;SDS011;11641;51.018;4.474;2023-03-11T01:03:20;9.88;;;3.42;;
22949;SDS011;11641;51.018;4.474;2023-03-11T01:05:45;11.15;;;3.28;;
22949;SDS011;11641;51.018;4.474;2023-03-11T01:08:11;12.77;;;3.10;;
22949;SDS011;11641;51.018;4.474;2023-03-11T01:10:39;10.88;;;2.83;;
22949;SDS011;11641;51.018;4.474;2023-03-11T01:13:07;11.80;;;2.85;;
22949;SDS011;11641;51.018;4.474;2023-03-11T01:15:35;10.40;;;2.80;;
22949;SDS011;11641;51.018;4.474;2023-03-11T01:18:04;9.80;;;2.47;;
22949;SDS011;11641;51.018;4.474;2023-03-11T01:20:30;8.38;;;2.60;;
22949;SDS011;11641;51.018;4.474;2023-03-11T01:22:58;6.57;;;2.45;;
22949;SDS011;11641;51.018;4.474;2023-03-11T01:25:27;13.05;;;2.78;;
22949;SDS011;11641;51.018;4.474;2023-03-11T01:27:55;8.80;;;2.60;;
22949;SDS011;11641;51.018;4.474;2023-03-11T01:30:21;9.18;;;2.78;;
22949;SDS011;11641;51.018;4.474;2023-03-11T01:32:49;8.45;;;2.50;;
22949;SDS011;11641;51.018;4.474;2023-03-11T01:35:16;10.10;;;2.60;;
22949;SDS011;11641;51.018;4.474;2023-03-11T01:37:43;13.25;;;2.30;;
22949;SDS011;11641;51.018;4.474;2023-03-11T01:43:00;13.52;;;2.53;;
22949;SDS011;11641;51.018;4.474;2023-03-11T01:48:28;8.57;;;2.38;;
22949;SDS011;11641;51.018;4.474;2023-03-11T01:50:56;6.82;;;2.50;;
22949;SDS011;11641;51.018;4.474;2023-03-11T01:53:24;12.38;;;2.90;;
22949;SDS011;11641;51.018;4.474;2023-03-11T01:55:50;7.82;;;3.40;;
22949;SDS011;11641;51.018;4.474;2023-03-11T01:58:23;8.63;;;2.40;;
22949;SDS011;11641;51.018;4.474;2023-03-11T02:00:51;9.48;;;2.58;;
22949;SDS011;11641;51.018;4.474;2023-03-11T02:03:20;9.63;;;2.85;;
22949;SDS011;11641;51.018;4.474;2023-03-11T02:05:51;10.48;;;2.60;;
22949;SDS011;11641;51.018;4.474;2023-03-11T02:08:20;7.07;;;2.53;;
22949;SDS011;11641;51.018;4.474;2023-03-11T02:10:45;9.82;;;2.30;;
22949;SDS011;11641;51.018;4.474;2023-03-11T02:13:14;6.28;;;2.30;;
22949;SDS011;11641;51.018;4.474;2023-03-11T02:15:40;6.15;;;2.15;;
22949;SDS011;11641;51.018;4.474;2023-03-11T02:18:06;11.63;;;3.30;;
22949;SDS011;11641;51.018;4.474;2023-03-11T02:23:51;5.03;;;2.50;;
22949;SDS011;11641;51.018;4.474;2023-03-11T02:26:23;10.35;;;1.73;;
22949;SDS011;11641;51.018;4.474;2023-03-11T02:28:52;12.07;;;1.95;;
22949;SDS011;11641;51.018;4.474;2023-03-11T02:31:18;3.75;;;1.80;;
22949;SDS011;11641;51.018;4.474;2023-03-11T02:33:48;8.80;;;2.30;;
22949;SDS011;11641;51.018;4.474;2023-03-11T02:39:15;10.25;;;2.20;;
22949;SDS011;11641;51.018;4.474;2023-03-11T02:41:43;6.13;;;2.00;;
22949;SDS011;11641;51.018;4.474;2023-03-11T02:44:10;4.60;;;1.98;;
22949;SDS011;11641;51.018;4.474;2023-03-11T02:46:39;9.60;;;2.33;;
22949;SDS011;11641;51.018;4.474;2023-03-11T02:49:06;5.53;;;2.03;;
22949;SDS011;11641;51.018;4.474;2023-03-11T02:51:33;7.43;;;2.70;;
22949;SDS011;11641;51.018;4.474;2023-03-11T02:54:00;7.32;;;2.30;;
22949;SDS011;11641;51.018;4.474;2023-03-11T02:56:28;8.07;;;2.88;;
22949;SDS011;11641;51.018;4.474;2023-03-11T02:58:54;8.38;;;2.53;;
22949;SDS011;11641;51.018;4.474;2023-03-11T03:01:22;14.70;;;2.90;;
22949;SDS011;11641;51.018;4.474;2023-03-11T03:03:48;10.63;;;2.72;;
22949;SDS011;11641;51.018;4.474;2023-03-11T03:06:14;8.00;;;3.05;;
22949;SDS011;11641;51.018;4.474;2023-03-11T03:08:39;11.07;;;3.20;;
22949;SDS011;11641;51.018;4.474;2023-03-11T03:11:05;8.18;;;2.88;;
22949;SDS011;11641;51.018;4.474;2023-03-11T03:13:31;9.02;;;2.65;;
22949;SDS011;11641;51.018;4.474;2023-03-11T03:15:57;11.10;;;3.10;;
22949;SDS011;11641;51.018;4.474;2023-03-11T03:18:26;7.65;;;2.80;;
22949;SDS011;11641;51.018;4.474;2023-03-11T03:20:52;8.45;;;3.00;;
22949;SDS011;11641;51.018;4.474;2023-03-11T03:23:21;8.38;;;2.92;;
22949;SDS011;11641;51.018;4.474;2023-03-11T03:25:47;12.48;;;2.95;;
22949;SDS011;11641;51.018;4.474;2023-03-11T03:28:13;9.93;;;2.70;;
22949;SDS011;11641;51.018;4.474;2023-03-11T03:30:39;9.30;;;2.70;;
22949;SDS011;11641;51.018;4.474;2023-03-11T03:33:04;13.88;;;2.65;;
22949;SDS011;11641;51.018;4.474;2023-03-11T03:35:31;7.97;;;2.75;;
22949;SDS011;11641;51.018;4.474;2023-03-11T03:37:57;10.65;;;3.05;;
22949;SDS011;11641;51.018;4.474;2023-03-11T03:40:24;8.82;;;3.08;;
22949;SDS011;11641;51.018;4.474;2023-03-11T03:42:50;8.70;;;2.92;;
22949;SDS011;11641;51.018;4.474;2023-03-11T03:45:16;10.68;;;2.45;;
22949;SDS011;11641;51.018;4.474;2023-03-11T03:47:41;12.38;;;2.80;;
22949;SDS011;11641;51.018;4.474;2023-03-11T03:50:08;8.27;;;2.70;;
22949;SDS011;11641;51.018;4.474;2023-03-11T03:52:35;9.77;;;2.85;;
22949;SDS011;11641;51.018;4.474;2023-03-11T03:55:02;8.00;;;2.60;;
22949;SDS011;11641;51.018;4.474;2023-03-11T03:57:31;6.68;;;2.90;;
22949;SDS011;11641;51.018;4.474;2023-03-11T03:59:57;10.45;;;2.95;;
22949;SDS011;11641;51.018;4.474;2023-03-11T04:02:24;6.68;;;2.30;;
22949;SDS011;11641;51.018;4.474;2023-03-11T04:04:50;9.85;;;3.05;;
22949;SDS011;11641;51.018;4.474;2023-03-11T04:07:16;11.75;;;3.13;;
22949;SDS011;11641;51.018;4.474;2023-03-11T04:09:42;7.07;;;3.08;;
22949;SDS011;11641;51.018;4.474;2023-03-11T04:12:13;10.63;;;3.15;;
22949;SDS011;11641;51.018;4.474;2023-03-11T04:14:41;8.13;;;2.72;;
22949;SDS011;11641;51.018;4.474;2023-03-11T04:17:07;12.07;;;3.13;;
22949;SDS011;11641;51.018;4.474;2023-03-11T04:19:35;8.45;;;3.03;;
22949;SDS011;11641;51.018;4.474;2023-03-11T04:22:01;11.77;;;3.10;;
22949;SDS011;11641;51.018;4.474;2023-03-11T04:24:27;12.48;;;2.97;;
22949;SDS011;11641;51.018;4.474;2023-03-11T04:26:52;9.95;;;3.50;;
22949;SDS011;11641;51.018;4.474;2023-03-11T04:29:20;11.25;;;2.95;;
22949;SDS011;11641;51.018;4.474;2023-03-11T04:31:46;11.95;;;2.97;;
22949;SDS011;11641;51.018;4.474;2023-03-11T04:34:11;9.75;;;3.28;;
22949;SDS011;11641;51.018;4.474;2023-03-11T04:36:37;6.80;;;3.00;;
22949;SDS011;11641;51.018;4.474;2023-03-11T04:39:03;10.60;;;3.40;;
22949;SDS011;11641;51.018;4.474;2023-03-11T04:41:30;8.35;;;3.28;;
22949;SDS011;11641;51.018;4.474;2023-03-11T04:43:59;10.02;;;3.20;;
22949;SDS011;11641;51.018;4.474;2023-03-11T04:46:24;8.68;;;3.28;;
22949;SDS011;11641;51.018;4.474;2023-03-11T04:48:50;12.88;;;3.63;;
22949;SDS011;11641;51.018;4.474;2023-03-11T04:51:16;11.63;;;4.00;;
22949;SDS011;11641;51.018;4.474;2023-03-11T04:53:41;13.20;;;4.68;;
22949;SDS011;11641;51.018;4.474;2023-03-11T04:56:07;9.20;;;4.43;;
22949;SDS011;11641;51.018;4.474;2023-03-11T04:58:35;15.05;;;4.43;;
22949;SDS011;11641;51.018;4.474;2023-03-11T05:01:03;16.25;;;4.15;;
22949;SDS011;11641;51.018;4.474;2023-03-11T05:03:29;12.20;;;3.95;;
22949;SDS011;11641;51.018;4.474;2023-03-11T05:05:54;8.18;;;4.03;;
22949;SDS011;11641;51.018;4.474;2023-03-11T05:08:25;7.82;;;3.70;;
22949;SDS011;11641;51.018;4.474;2023-03-11T05:10:51;11.70;;;4.20;;
22949;SDS011;11641;51.018;4.474;2023-03-11T05:13:18;12.05;;;3.70;;
22949;SDS011;11641;51.018;4.474;2023-03-11T05:15:46;10.68;;;4.18;;
22949;SDS011;11641;51.018;4.474;2023-03-11T05:18:12;13.90;;;4.00;;
22949;SDS011;11641;51.018;4.474;2023-03-11T05:20:41;8.90;;;4.03;;
22949;SDS011;11641;51.018;4.474;2023-03-11T05:23:09;8.60;;;3.42;;
22949;SDS011;11641;51.018;4.474;2023-03-11T05:25:35;11.07;;;3.50;;
22949;SDS011;11641;51.018;4.474;2023-03-11T05:28:00;10.68;;;3.70;;
22949;SDS011;11641;51.018;4.474;2023-03-11T05:30:26;14.30;;;3.85;;
22949;SDS011;11641;51.018;4.474;2023-03-11T05:32:54;9.50;;;3.97;;
22949;SDS011;11641;51.018;4.474;2023-03-11T05:35:20;15.13;;;4.22;;
22949;SDS011;11641;51.018;4.474;2023-03-11T05:37:46;7.65;;;3.40;;
22949;SDS011;11641;51.018;4.474;2023-03-11T05:40:14;15.27;;;4.35;;
22949;SDS011;11641;51.018;4.474;2023-03-11T05:42:40;9.82;;;4.22;;
22949;SDS011;11641;51.018;4.474;2023-03-11T05:45:06;10.27;;;4.15;;
22949;SDS011;11641;51.018;4.474;2023-03-11T05:47:35;9.35;;;4.38;;
22949;SDS011;11641;51.018;4.474;2023-03-11T05:50:00;8.05;;;3.92;;
22949;SDS011;11641;51.018;4.474;2023-03-11T05:52:27;8.00;;;3.75;;
22949;SDS011;11641;51.018;4.474;2023-03-11T05:54:57;10.50;;;4.50;;
22949;SDS011;11641;51.018;4.474;2023-03-11T05:57:24;8.88;;;4.35;;
22949;SDS011;11641;51.018;4.474;2023-03-11T05:59:50;11.45;;;4.30;;
22949;SDS011;11641;51.018;4.474;2023-03-11T06:02:16;10.60;;;4.20;;
22949;SDS011;11641;51.018;4.474;2023-03-11T06:04:42;12.75;;;4.75;;
22949;SDS011;11641;51.018;4.474;2023-03-11T06:07:07;10.90;;;4.03;;
22949;SDS011;11641;51.018;4.474;2023-03-11T06:09:39;10.77;;;4.38;;
22949;SDS011;11641;51.018;4.474;2023-03-11T06:12:05;13.20;;;4.10;;
22949;SDS011;11641;51.018;4.474;2023-03-11T06:14:33;11.52;;;4.07;;
22949;SDS011;11641;51.018;4.474;2023-03-11T06:16:59;10.05;;;4.22;;
22949;SDS011;11641;51.018;4.474;2023-03-11T06:19:25;8.20;;;4.25;;
22949;SDS011;11641;51.018;4.474;2023-03-11T06:21:50;13.60;;;4.70;;
22949;SDS011;11641;51.018;4.474;2023-03-11T06:24:16;11.73;;;4.50;;
22949;SDS011;11641;51.018;4.474;2023-03-11T06:26:42;8.57;;;4.05;;
22949;SDS011;11641;51.018;4.474;2023-03-11T06:29:10;10.73;;;4.32;;
22949;SDS011;11641;51.018;4.474;2023-03-11T06:31:38;12.77;;;4.50;;
22949;SDS011;11641;51.018;4.474;2023-03-11T06:34:05;11.82;;;4.43;;
22949;SDS011;11641;51.018;4.474;2023-03-11T06:36:31;10.65;;;4.60;;
22949;SDS011;11641;51.018;4.474;2023-03-11T06:38:57;8.70;;;5.07;;
22949;SDS011;11641;51.018;4.474;2023-03-11T06:41:25;14.20;;;5.05;;
22949;SDS011;11641;51.018;4.474;2023-03-11T06:43:51;14.30;;;5.13;;
22949;SDS011;11641;51.018;4.474;2023-03-11T06:46:18;14.38;;;4.75;;
22949;SDS011;11641;51.018;4.474;2023-03-11T06:48:46;12.77;;;5.03;;
22949;SDS011;11641;51.018;4.474;2023-03-11T06:51:15;13.23;;;4.82;;
22949;SDS011;11641;51.018;4.474;2023-03-11T06:53:47;13.52;;;5.40;;
22949;SDS011;11641;51.018;4.474;2023-03-11T06:56:14;12.48;;;4.72;;
22949;SDS011;11641;51.018;4.474;2023-03-11T06:58:40;9.35;;;4.82;;
22949;SDS011;11641;51.018;4.474;2023-03-11T07:01:20;10.63;;;5.32;;
22949;SDS011;11641;51.018;4.474;2023-03-11T07:03:47;10.48;;;4.65;;
22949;SDS011;11641;51.018;4.474;2023-03-11T07:06:20;14.43;;;5.32;;
22949;SDS011;11641;51.018;4.474;2023-03-11T07:11:18;15.05;;;4.93;;
22949;SDS011;11641;51.018;4.474;2023-03-11T07:13:46;15.65;;;5.28;;
22949;SDS011;11641;51.018;4.474;2023-03-11T07:16:16;23.83;;;5.88;;
22949;SDS011;11641;51.018;4.474;2023-03-11T07:18:44;13.90;;;5.25;;
22949;SDS011;11641;51.018;4.474;2023-03-11T07:21:15;13.77;;;4.78;;
22949;SDS011;11641;51.018;4.474;2023-03-11T07:23:42;12.77;;;5.05;;
22949;SDS011;11641;51.018;4.474;2023-03-11T07:26:09;12.98;;;5.00;;
22949;SDS011;11641;51.018;4.474;2023-03-11T07:28:37;16.75;;;5.80;;
22949;SDS011;11641;51.018;4.474;2023-03-11T07:31:07;10.25;;;5.20;;
22949;SDS011;11641;51.018;4.474;2023-03-11T07:33:34;13.15;;;5.65;;
22949;SDS011;11641;51.018;4.474;2023-03-11T07:36:03;11.25;;;5.10;;
22949;SDS011;11641;51.018;4.474;2023-03-11T07:38:36;14.38;;;5.53;;
22949;SDS011;11641;51.018;4.474;2023-03-11T07:41:02;14.77;;;5.43;;
22949;SDS011;11641;51.018;4.474;2023-03-11T07:43:29;10.07;;;5.43;;
22949;SDS011;11641;51.018;4.474;2023-03-11T07:48:46;12.27;;;4.97;;
22949;SDS011;11641;51.018;4.474;2023-03-11T07:51:17;14.70;;;4.88;;
22949;SDS011;11641;51.018;4.474;2023-03-11T07:53:45;10.48;;;5.03;;
22949;SDS011;11641;51.018;4.474;2023-03-11T07:56:11;13.18;;;5.03;;
22949;SDS011;11641;51.018;4.474;2023-03-11T07:58:38;14.10;;;5.53;;
22949;SDS011;11641;51.018;4.474;2023-03-11T08:01:06;13.85;;;4.95;;
22949;SDS011;11641;51.018;4.474;2023-03-11T08:03:33;15.40;;;4.40;;
22949;SDS011;11641;51.018;4.474;2023-03-11T08:05:59;11.63;;;4.28;;
22949;SDS011;11641;51.018;4.474;2023-03-11T08:08:25;11.05;;;4.13;;
22949;SDS011;11641;51.018;4.474;2023-03-11T08:10:51;13.23;;;4.07;;
22949;SDS011;11641;51.018;4.474;2023-03-11T08:13:16;11.43;;;3.92;;
22949;SDS011;11641;51.018;4.474;2023-03-11T08:15:44;12.15;;;4.30;;
22949;SDS011;11641;51.018;4.474;2023-03-11T08:18:10;9.63;;;4.28;;
22949;SDS011;11641;51.018;4.474;2023-03-11T08:20:36;10.95;;;4.15;;
22949;SDS011;11641;51.018;4.474;2023-03-11T08:23:02;9.60;;;4.00;;
22949;SDS011;11641;51.018;4.474;2023-03-11T08:25:28;9.73;;;4.43;;
22949;SDS011;11641;51.018;4.474;2023-03-11T08:27:54;6.22;;;3.80;;
22949;SDS011;11641;51.018;4.474;2023-03-11T08:30:20;12.48;;;4.30;;
22949;SDS011;11641;51.018;4.474;2023-03-11T08:32:46;9.02;;;3.65;;
22949;SDS011;11641;51.018;4.474;2023-03-11T08:35:13;9.18;;;3.72;;
22949;SDS011;11641;51.018;4.474;2023-03-11T08:37:43;13.02;;;3.97;;
22949;SDS011;11641;51.018;4.474;2023-03-11T08:40:09;12.65;;;3.60;;
22949;SDS011;11641;51.018;4.474;2023-03-11T08:42:35;12.38;;;3.88;;
22949;SDS011;11641;51.018;4.474;2023-03-11T08:45:01;11.63;;;3.53;;
22949;SDS011;11641;51.018;4.474;2023-03-11T08:47:27;12.20;;;3.38;;
22949;SDS011;11641;51.018;4.474;2023-03-11T08:49:53;9.10;;;3.08;;
22949;SDS011;11641;51.018;4.474;2023-03-11T08:52:18;13.15;;;3.25;;
22949;SDS011;11641;51.018;4.474;2023-03-11T08:54:44;11.05;;;3.17;;
22949;SDS011;11641;51.018;4.474;2023-03-11T08:57:09;9.95;;;2.83;;
22949;SDS011;11641;51.018;4.474;2023-03-11T08:59:35;8.45;;;2.95;;
22949;SDS011;11641;51.018;4.474;2023-03-11T09:02:01;10.90;;;2.92;;
22949;SDS011;11641;51.018;4.474;2023-03-11T09:04:26;13.18;;;3.20;;
22949;SDS011;11641;51.018;4.474;2023-03-11T09:06:52;10.68;;;2.53;;
22949;SDS011;11641;51.018;4.474;2023-03-11T09:09:18;9.00;;;2.13;;
22949;SDS011;11641;51.018;4.474;2023-03-11T09:11:44;9.70;;;2.40;;
22949;SDS011;11641;51.018;4.474;2023-03-11T09:14:11;10.32;;;2.03;;
22949;SDS011;11641;51.018;4.474;2023-03-11T09:16:36;7.88;;;1.92;;
22949;SDS011;11641;51.018;4.474;2023-03-11T09:19:02;11.82;;;1.52;;
22949;SDS011;11641;51.018;4.474;2023-03-11T09:21:31;5.78;;;1.60;;
22949;SDS011;11641;51.018;4.474;2023-03-11T09:24:00;5.85;;;1.90;;
22949;SDS011;11641;51.018;4.474;2023-03-11T09:26:29;8.77;;;1.77;;
22949;SDS011;11641;51.018;4.474;2023-03-11T09:28:55;6.88;;;1.23;;
22949;SDS011;11641;51.018;4.474;2023-03-11T09:31:21;5.00;;;1.10;;
22949;SDS011;11641;51.018;4.474;2023-03-11T09:33:46;4.40;;;0.93;;
22949;SDS011;11641;51.018;4.474;2023-03-11T09:36:17;5.05;;;1.20;;
22949;SDS011;11641;51.018;4.474;2023-03-11T09:38:46;8.88;;;1.27;;
22949;SDS011;11641;51.018;4.474;2023-03-11T09:49:02;7.10;;;1.45;;
22949;SDS011;11641;51.018;4.474;2023-03-11T09:51:56;5.72;;;1.20;;
22949;SDS011;11641;51.018;4.474;2023-03-11T09:57:27;6.05;;;0.80;;
22949;SDS011;11641;51.018;4.474;2023-03-11T09:59:59;7.28;;;1.10;;
22949;SDS011;11641;51.018;4.474;2023-03-11T10:02:28;4.45;;;1.13;;
22949;SDS011;11641;51.018;4.474;2023-03-11T10:05:00;6.78;;;0.80;;
22949;SDS011;11641;51.018;4.474;2023-03-11T10:07:40;5.63;;;1.00;;
22949;SDS011;11641;51.018;4.474;2023-03-11T10:10:14;4.55;;;0.88;;
22949;SDS011;11641;51.018;4.474;2023-03-11T10:15:15;5.60;;;1.00;;
22949;SDS011;11641;51.018;4.474;2023-03-11T10:20:26;4.45;;;1.00;;
22949;SDS011;11641;51.018;4.474;2023-03-11T10:23:21;3.88;;;0.77;;
22949;SDS011;11641;51.018;4.474;2023-03-11T10:28:46;4.95;;;0.82;;
22949;SDS011;11641;51.018;4.474;2023-03-11T10:31:24;7.95;;;1.00;;
22949;SDS011;11641;51.018;4.474;2023-03-11T10:39:27;6.95;;;1.05;;
22949;SDS011;11641;51.018;4.474;2023-03-11T10:42:04;7.25;;;1.40;;
22949;SDS011;11641;51.018;4.474;2023-03-11T10:44:37;8.85;;;1.15;;
22949;SDS011;11641;51.018;4.474;2023-03-11T10:47:04;5.35;;;0.90;;
22949;SDS011;11641;51.018;4.474;2023-03-11T10:49:31;2.60;;;0.85;;
22949;SDS011;11641;51.018;4.474;2023-03-11T10:51:57;5.18;;;0.90;;
22949;SDS011;11641;51.018;4.474;2023-03-11T10:56:54;5.35;;;1.13;;
22949;SDS011;11641;51.018;4.474;2023-03-11T11:04:45;5.20;;;0.90;;
22949;SDS011;11641;51.018;4.474;2023-03-11T11:12:58;8.50;;;0.80;;
22949;SDS011;11641;51.018;4.474;2023-03-11T11:23:25;4.88;;;0.88;;
22949;SDS011;11641;51.018;4.474;2023-03-11T11:25:56;8.57;;;1.20;;
22949;SDS011;11641;51.018;4.474;2023-03-11T11:28:23;4.20;;;0.90;;
22949;SDS011;11641;51.018;4.474;2023-03-11T11:33:49;3.65;;;0.90;;
22949;SDS011;11641;51.018;4.474;2023-03-11T11:38:43;6.82;;;1.17;;
22949;SDS011;11641;51.018;4.474;2023-03-11T11:41:12;3.50;;;0.90;;
22949;SDS011;11641;51.018;4.474;2023-03-11T11:46:58;3.58;;;1.13;;
22949;SDS011;11641;51.018;4.474;2023-03-11T11:49:22;8.07;;;1.25;;
22949;SDS011;11641;51.018;4.474;2023-03-11T11:52:05;4.03;;;0.77;;
22949;SDS011;11641;51.018;4.474;2023-03-11T11:57:44;6.70;;;1.02;;
22949;SDS011;11641;51.018;4.474;2023-03-11T12:00:17;6.05;;;0.95;;
22949;SDS011;11641;51.018;4.474;2023-03-11T12:07:53;4.72;;;1.15;;
22949;SDS011;11641;51.018;4.474;2023-03-11T12:10:22;5.78;;;1.00;;
22949;SDS011;11641;51.018;4.474;2023-03-11T12:16:01;9.68;;;1.10;;
22949;SDS011;11641;51.018;4.474;2023-03-11T12:27:02;6.82;;;0.98;;
22949;SDS011;11641;51.018;4.474;2023-03-11T12:29:38;4.30;;;0.80;;
22949;SDS011;11641;51.018;4.474;2023-03-11T12:32:07;6.70;;;0.90;;
22949;SDS011;11641;51.018;4.474;2023-03-11T12:34:54;3.92;;;0.80;;
22949;SDS011;11641;51.018;4.474;2023-03-11T12:37:25;3.97;;;1.00;;
22949;SDS011;11641;51.018;4.474;2023-03-11T12:39:50;7.55;;;1.17;;
22949;SDS011;11641;51.018;4.474;2023-03-11T12:42:17;4.45;;;1.40;;
22949;SDS011;11641;51.018;4.474;2023-03-11T12:44:49;4.75;;;1.40;;
22949;SDS011;11641;51.018;4.474;2023-03-11T12:47:16;2.75;;;1.05;;
22949;SDS011;11641;51.018;4.474;2023-03-11T12:50:36;5.50;;;1.05;;
22949;SDS011;11641;51.018;4.474;2023-03-11T12:52:53;2.85;;;0.98;;
22949;SDS011;11641;51.018;4.474;2023-03-11T12:55:23;6.78;;;1.20;;
22949;SDS011;11641;51.018;4.474;2023-03-11T12:57:57;5.55;;;1.27;;
22949;SDS011;11641;51.018;4.474;2023-03-11T13:00:51;4.88;;;0.93;;
22949;SDS011;11641;51.018;4.474;2023-03-11T13:03:40;4.45;;;1.10;;
22949;SDS011;11641;51.018;4.474;2023-03-11T13:09:12;4.88;;;0.90;;
22949;SDS011;11641;51.018;4.474;2023-03-11T13:11:43;5.18;;;1.35;;
22949;SDS011;11641;51.018;4.474;2023-03-11T13:16:40;4.47;;;1.20;;
22949;SDS011;11641;51.018;4.474;2023-03-11T13:19:31;3.95;;;0.88;;
22949;SDS011;11641;51.018;4.474;2023-03-11T13:21:59;5.35;;;1.00;;
22949;SDS011;11641;51.018;4.474;2023-03-11T13:43:35;4.72;;;1.30;;
22949;SDS011;11641;51.018;4.474;2023-03-11T13:46:10;3.13;;;0.95;;
22949;SDS011;11641;51.018;4.474;2023-03-11T13:48:45;5.05;;;1.05;;
22949;SDS011;11641;51.018;4.474;2023-03-11T13:51:17;5.18;;;1.00;;
22949;SDS011;11641;51.018;4.474;2023-03-11T13:56:57;4.32;;;1.00;;
22949;SDS011;11641;51.018;4.474;2023-03-11T13:59:26;3.42;;;0.80;;
22949;SDS011;11641;51.018;4.474;2023-03-11T14:04:31;5.45;;;1.13;;
22949;SDS011;11641;51.018;4.474;2023-03-11T14:07:00;3.33;;;0.85;;
22949;SDS011;11641;51.018;4.474;2023-03-11T14:09:46;5.22;;;0.75;;
22949;SDS011;11641;51.018;4.474;2023-03-11T14:12:12;6.57;;;1.00;;
22949;SDS011;11641;51.018;4.474;2023-03-11T14:17:18;4.28;;;0.93;;
22949;SDS011;11641;51.018;4.474;2023-03-11T14:20:03;4.97;;;0.75;;
22949;SDS011;11641;51.018;4.474;2023-03-11T14:22:35;6.30;;;1.23;;
22949;SDS011;11641;51.018;4.474;2023-03-11T14:25:05;4.95;;;1.10;;
22949;SDS011;11641;51.018;4.474;2023-03-11T14:27:37;5.13;;;1.27;;
22949;SDS011;11641;51.018;4.474;2023-03-11T14:30:04;3.88;;;0.90;;
22949;SDS011;11641;51.018;4.474;2023-03-11T14:32:32;5.03;;;1.05;;
22949;SDS011;11641;51.018;4.474;2023-03-11T14:34:58;4.70;;;0.95;;
22949;SDS011;11641;51.018;4.474;2023-03-11T14:37:31;4.15;;;1.00;;
22949;SDS011;11641;51.018;4.474;2023-03-11T14:39:59;3.45;;;1.00;;
22949;SDS011;11641;51.018;4.474;2023-03-11T14:45:13;5.47;;;1.30;;
22949;SDS011;11641;51.018;4.474;2023-03-11T14:50:10;3.42;;;1.15;;
22949;SDS011;11641;51.018;4.474;2023-03-11T14:52:41;2.67;;;0.90;;
22949;SDS011;11641;51.018;4.474;2023-03-11T14:55:13;4.22;;;1.02;;
22949;SDS011;11641;51.018;4.474;2023-03-11T14:57:56;7.00;;;0.90;;
22949;SDS011;11641;51.018;4.474;2023-03-11T15:00:32;3.88;;;0.90;;
22949;SDS011;11641;51.018;4.474;2023-03-11T15:08:29;5.30;;;1.02;;
22949;SDS011;11641;51.018;4.474;2023-03-11T15:13:31;3.08;;;0.98;;
22949;SDS011;11641;51.018;4.474;2023-03-11T15:15:57;5.93;;;1.05;;
22949;SDS011;11641;51.018;4.474;2023-03-11T15:18:31;3.50;;;0.85;;
22949;SDS011;11641;51.018;4.474;2023-03-11T15:23:59;3.40;;;1.10;;
22949;SDS011;11641;51.018;4.474;2023-03-11T15:26:31;7.20;;;1.10;;
22949;SDS011;11641;51.018;4.474;2023-03-11T15:29:12;5.30;;;1.00;;
22949;SDS011;11641;51.018;4.474;2023-03-11T15:31:40;5.43;;;1.02;;
22949;SDS011;11641;51.018;4.474;2023-03-11T15:39:13;4.35;;;0.90;;
22949;SDS011;11641;51.018;4.474;2023-03-11T15:41:43;6.35;;;1.02;;
22949;SDS011;11641;51.018;4.474;2023-03-11T15:44:19;3.38;;;1.17;;
22949;SDS011;11641;51.018;4.474;2023-03-11T15:46:49;4.60;;;1.20;;
22949;SDS011;11641;51.018;4.474;2023-03-11T15:49:17;4.38;;;1.10;;
22949;SDS011;11641;51.018;4.474;2023-03-11T15:51:42;5.05;;;1.17;;
22949;SDS011;11641;51.018;4.474;2023-03-11T15:54:08;3.85;;;0.90;;
22949;SDS011;11641;51.018;4.474;2023-03-11T15:56:36;3.97;;;1.10;;
22949;SDS011;11641;51.018;4.474;2023-03-11T15:59:05;5.60;;;1.17;;
22949;SDS011;11641;51.018;4.474;2023-03-11T16:01:31;4.40;;;0.98;;
22949;SDS011;11641;51.018;4.474;2023-03-11T16:03:56;4.40;;;1.00;;
22949;SDS011;11641;51.018;4.474;2023-03-11T16:06:22;6.72;;;1.30;;
22949;SDS011;11641;51.018;4.474;2023-03-11T16:08:50;9.00;;;1.42;;
22949;SDS011;11641;51.018;4.474;2023-03-11T16:11:16;2.50;;;1.00;;
22949;SDS011;11641;51.018;4.474;2023-03-11T16:13:42;2.78;;;1.00;;
22949;SDS011;11641;51.018;4.474;2023-03-11T16:16:11;6.43;;;0.90;;
22949;SDS011;11641;51.018;4.474;2023-03-11T16:18:43;7.93;;;0.90;;
22949;SDS011;11641;51.018;4.474;2023-03-11T16:21:17;4.63;;;1.10;;
22949;SDS011;11641;51.018;4.474;2023-03-11T16:23:48;3.35;;;0.70;;
22949;SDS011;11641;51.018;4.474;2023-03-11T16:26:14;4.65;;;1.10;;
22949;SDS011;11641;51.018;4.474;2023-03-11T16:28:40;3.88;;;0.90;;
22949;SDS011;11641;51.018;4.474;2023-03-11T16:31:06;7.63;;;1.38;;
22949;SDS011;11641;51.018;4.474;2023-03-11T16:33:33;3.55;;;0.88;;
22949;SDS011;11641;51.018;4.474;2023-03-11T16:36:02;3.97;;;0.90;;
22949;SDS011;11641;51.018;4.474;2023-03-11T16:38:32;3.78;;;0.90;;
22949;SDS011;11641;51.018;4.474;2023-03-11T16:41:12;4.07;;;1.10;;
22949;SDS011;11641;51.018;4.474;2023-03-11T16:43:39;4.75;;;1.42;;
22949;SDS011;11641;51.018;4.474;2023-03-11T16:46:05;5.45;;;0.90;;
22949;SDS011;11641;51.018;4.474;2023-03-11T16:48:30;5.72;;;0.80;;
22949;SDS011;11641;51.018;4.474;2023-03-11T16:50:56;6.00;;;0.90;;
22949;SDS011;11641;51.018;4.474;2023-03-11T16:53:22;3.65;;;1.00;;
22949;SDS011;11641;51.018;4.474;2023-03-11T16:55:50;4.53;;;0.88;;
22949;SDS011;11641;51.018;4.474;2023-03-11T16:58:16;5.65;;;0.98;;
22949;SDS011;11641;51.018;4.474;2023-03-11T17:00:42;5.13;;;1.10;;
22949;SDS011;11641;51.018;4.474;2023-03-11T17:03:15;10.38;;;1.67;;
22949;SDS011;11641;51.018;4.474;2023-03-11T17:05:42;6.40;;;1.40;;
22949;SDS011;11641;51.018;4.474;2023-03-11T17:08:08;5.30;;;1.40;;
22949;SDS011;11641;51.018;4.474;2023-03-11T17:10:37;7.15;;;1.40;;
22949;SDS011;11641;51.018;4.474;2023-03-11T17:13:05;8.10;;;1.50;;
22949;SDS011;11641;51.018;4.474;2023-03-11T17:15:33;4.95;;;1.50;;
22949;SDS011;11641;51.018;4.474;2023-03-11T17:18:00;4.82;;;1.30;;